createdAt,value
2023-04-01T00:00:49.916Z,7.80
2023-04-01T00:03:51.622Z,7.80
2023-04-01T00:06:52.981Z,7.80
2023-04-01T00:09:54.067Z,7.80
2023-04-01T00:12:55.648Z,7.70
2023-04-01T00:15:57.605Z,7.80
2023-04-01T00:18:59.073Z,7.80
2023-04-01T00:22:00.396Z,7.80
2023-04-01T00:25:01.651Z,7.80
2023-04-01T00:28:02.659Z,7.70
2023-04-01T00:31:09.600Z,7.80
2023-04-01T00:34:10.470Z,7.70
2023-04-01T00:37:12.602Z,7.60
2023-04-01T00:40:32.637Z,7.50
2023-04-01T00:43:34.694Z,7.50
2023-04-01T00:46:36.827Z,7.40
2023-04-01T00:49:50.979Z,7.40
2023-04-01T00:52:53.577Z,7.30
2023-04-01T00:56:18.592Z,7.20
2023-04-01T00:59:28.697Z,7.00
2023-04-01T01:02:30.122Z,6.80
2023-04-01T01:06:11.921Z,6.70
2023-04-01T01:09:32.069Z,6.60
2023-04-01T01:13:19.555Z,6.50
2023-04-01T01:16:36.370Z,6.40
2023-04-01T01:20:12.833Z,6.40
2023-04-01T01:24:06.793Z,6.40
2023-04-01T01:27:17.750Z,6.30
2023-04-01T01:30:59.415Z,6.30
2023-04-01T01:34:23.732Z,6.30
2023-04-01T01:37:28.614Z,6.30
2023-04-01T01:40:34.305Z,6.30
2023-04-01T01:43:43.179Z,6.40
2023-04-01T01:46:46.929Z,6.50
2023-04-01T01:49:48.946Z,6.60
2023-04-01T01:52:51.016Z,6.80
2023-04-01T01:55:53.213Z,7.00
2023-04-01T01:59:02.465Z,7.30
2023-04-01T02:02:09.222Z,7.40
2023-04-01T02:05:16.857Z,7.30
2023-04-01T02:08:32.386Z,7.30
2023-04-01T02:11:40.383Z,7.30
2023-04-01T02:14:55.493Z,7.30
2023-04-01T02:17:58.273Z,7.50
2023-04-01T02:21:01.856Z,7.40
2023-04-01T02:24:11.508Z,7.50
2023-04-01T02:27:14.119Z,7.40
2023-04-01T02:30:18.379Z,7.50
2023-04-01T02:33:22.267Z,7.40
2023-04-01T02:36:25.785Z,7.40
2023-04-01T02:39:27.572Z,7.40
2023-04-01T02:42:28.659Z,7.40
2023-04-01T02:45:29.625Z,7.40
2023-04-01T02:48:31.775Z,7.40
2023-04-01T02:51:34.088Z,7.30
2023-04-01T02:54:34.995Z,7.10
2023-04-01T02:57:36.169Z,7.20
2023-04-01T03:00:37.524Z,7.10
2023-04-01T03:03:39.530Z,7.20
2023-04-01T03:06:41.087Z,7.10
2023-04-01T03:09:42.046Z,7.20
2023-04-01T03:12:43.280Z,7.20
2023-04-01T03:15:44.107Z,7.10
2023-04-01T03:18:45.388Z,7.20
2023-04-01T03:21:46.712Z,7.10
2023-04-01T03:24:49.116Z,7.00
2023-04-01T03:27:50.208Z,7.00
2023-04-01T03:30:51.486Z,7.20
2023-04-01T03:33:52.900Z,7.10
2023-04-01T03:36:54.249Z,7.20
2023-04-01T03:39:55.188Z,7.10
2023-04-01T03:42:57.432Z,7.10
2023-04-01T03:45:59.670Z,7.10
2023-04-01T03:49:00.904Z,6.90
2023-04-01T03:52:02.105Z,6.90
2023-04-01T03:55:03.786Z,6.80
2023-04-01T03:58:07.639Z,6.90
2023-04-01T04:01:23.676Z,6.80
2023-04-01T04:04:28.669Z,6.70
2023-04-01T04:07:29.883Z,6.80
2023-04-01T04:10:37.356Z,6.90
2023-04-01T04:13:38.356Z,6.70
2023-04-01T04:16:39.823Z,6.70
2023-04-01T04:19:41.094Z,6.70
2023-04-01T04:22:42.431Z,6.80
2023-04-01T04:25:59.844Z,6.80
2023-04-01T04:29:02.719Z,6.80
2023-04-01T04:32:04.976Z,6.80
2023-04-01T04:35:07.811Z,6.80
2023-04-01T04:38:09.180Z,6.80
2023-04-01T04:41:23.417Z,6.70
2023-04-01T04:44:25.820Z,6.80
2023-04-01T04:47:27.228Z,6.80
2023-04-01T04:50:28.453Z,6.90
2023-04-01T04:53:30.046Z,6.90
2023-04-01T04:56:32.028Z,6.80
2023-04-01T04:59:41.610Z,6.70
2023-04-01T05:02:47.515Z,6.60
2023-04-01T05:05:54.919Z,6.50
2023-04-01T05:08:57.176Z,6.50
2023-04-01T05:11:58.538Z,6.60
2023-04-01T05:15:01.572Z,6.50
2023-04-01T05:18:02.953Z,6.50
2023-04-01T05:21:04.434Z,6.60
2023-04-01T05:24:10.895Z,6.50
2023-04-01T05:27:12.407Z,6.50
2023-04-01T05:30:15.720Z,6.60
2023-04-01T05:33:49.350Z,6.80
2023-04-01T05:36:51.481Z,6.70
2023-04-01T05:39:52.625Z,6.80
2023-04-01T05:42:53.949Z,6.80
2023-04-01T05:45:54.834Z,7.00
2023-04-01T05:49:18.526Z,7.00
2023-04-01T05:52:19.834Z,7.20
2023-04-01T05:55:21.042Z,7.20
2023-04-01T05:58:24.849Z,7.30
2023-04-01T06:01:26.286Z,7.30
2023-04-01T06:04:38.437Z,7.40
2023-04-01T06:07:39.576Z,7.40
2023-04-01T06:11:23.724Z,7.50
2023-04-01T06:15:06.362Z,7.50
2023-04-01T06:18:34.914Z,7.50
2023-04-01T06:22:06.786Z,7.30
2023-04-01T06:25:49.539Z,7.30
2023-04-01T06:29:45.927Z,7.30
2023-04-01T06:32:56.272Z,7.40
2023-04-01T06:36:23.165Z,7.60
2023-04-01T06:39:50.168Z,7.70
2023-04-01T06:43:14.815Z,7.90
2023-04-01T06:46:48.563Z,8.10
2023-04-01T06:50:31.915Z,8.20
2023-04-01T06:54:32.729Z,8.00
2023-04-01T06:58:04.738Z,8.10
2023-04-01T07:01:13.660Z,8.20
2023-04-01T07:04:40.730Z,8.20
2023-04-01T07:07:46.264Z,8.40
2023-04-01T07:11:06.000Z,8.50
2023-04-01T07:14:37.834Z,8.70
2023-04-01T07:17:42.680Z,8.70
2023-04-01T07:20:45.068Z,8.80
2023-04-01T07:23:48.608Z,9.00
2023-04-01T07:27:13.122Z,9.00
2023-04-01T07:30:23.071Z,9.00
2023-04-01T07:33:38.705Z,9.10
2023-04-01T07:37:02.595Z,9.20
2023-04-01T07:40:26.356Z,9.30
2023-04-01T07:44:22.558Z,9.40
2023-04-01T07:47:54.063Z,9.40
2023-04-01T07:51:24.782Z,9.30
2023-04-01T07:54:58.564Z,9.30
2023-04-01T07:58:58.397Z,9.10
2023-04-01T08:02:43.313Z,9.00
2023-04-01T08:06:13.136Z,9.10
2023-04-01T08:09:56.779Z,9.10
2023-04-01T08:13:37.200Z,9.20
2023-04-01T08:17:41.915Z,9.30
2023-04-01T08:20:53.768Z,9.30
2023-04-01T08:24:27.887Z,9.20
2023-04-01T08:27:45.923Z,9.10
2023-04-01T08:31:01.725Z,9.00
2023-04-01T08:34:11.803Z,9.00
2023-04-01T08:37:21.601Z,8.90
2023-04-01T08:40:56.900Z,8.80
2023-04-01T08:44:39.257Z,8.90
2023-04-01T08:48:13.446Z,8.80
2023-04-01T08:52:16.040Z,8.80
2023-04-01T08:55:55.957Z,8.70
2023-04-01T08:59:22.663Z,8.60
2023-04-01T09:02:53.336Z,8.60
2023-04-01T09:06:30.057Z,8.60
2023-04-01T09:10:15.625Z,8.60
2023-04-01T09:13:44.355Z,8.50
2023-04-01T09:17:16.916Z,8.40
2023-04-01T09:20:44.153Z,8.40
2023-04-01T09:24:03.912Z,8.30
2023-04-01T09:27:55.148Z,8.20
2023-04-01T09:31:13.260Z,8.20
2023-04-01T09:35:21.973Z,7.90
2023-04-01T09:38:37.747Z,7.90
2023-04-01T09:42:16.331Z,8.00
2023-04-01T09:45:39.210Z,8.10
2023-04-01T09:49:26.442Z,8.10
2023-04-01T09:52:36.918Z,8.20
2023-04-01T09:56:26.745Z,8.30
2023-04-01T10:00:10.752Z,8.50
2023-04-01T10:04:12.624Z,8.60
2023-04-01T10:07:37.922Z,8.80
2023-04-01T10:10:57.532Z,8.80
2023-04-01T10:14:29.431Z,8.90
2023-04-01T10:18:15.185Z,9.00
2023-04-01T10:21:44.232Z,9.00
2023-04-01T10:25:10.175Z,9.10
2023-04-01T10:28:35.906Z,9.20
2023-04-01T10:32:20.482Z,9.20
2023-04-01T10:36:03.248Z,9.40
2023-04-01T10:40:01.934Z,9.40
2023-04-01T10:44:00.624Z,9.60
2023-04-01T10:47:27.949Z,9.80
2023-04-01T10:51:13.647Z,9.80
2023-04-01T10:55:10.969Z,10.00
2023-04-01T10:58:58.310Z,9.70
2023-04-01T11:03:05.793Z,9.70
2023-04-01T11:07:03.945Z,9.60
2023-04-01T11:10:32.127Z,9.80
2023-04-01T11:14:36.342Z,10.10
2023-04-01T11:18:01.973Z,10.30
2023-04-01T11:21:38.807Z,10.20
2023-04-01T11:25:12.929Z,10.40
2023-04-01T11:28:48.633Z,10.40
2023-04-01T11:32:08.822Z,10.60
2023-04-01T11:35:54.650Z,10.50
2023-04-01T11:39:13.066Z,10.70
2023-04-01T11:42:51.046Z,10.60
2023-04-01T11:46:32.328Z,10.50
2023-04-01T11:50:05.005Z,10.50
2023-04-01T11:54:02.514Z,10.30
2023-04-01T11:57:45.978Z,10.60
2023-04-01T12:01:07.940Z,10.70
2023-04-01T12:04:41.635Z,10.50
2023-04-01T12:08:09.732Z,10.80
2023-04-01T12:11:29.435Z,11.00
2023-04-01T12:15:19.389Z,10.60
2023-04-01T12:18:39.748Z,10.60
2023-04-01T12:22:04.221Z,10.60
2023-04-01T12:25:18.003Z,10.50
2023-04-01T12:28:42.339Z,10.50
2023-04-01T12:32:18.921Z,10.60
2023-04-01T12:35:47.662Z,10.50
2023-04-01T12:39:38.044Z,10.30
2023-04-01T12:43:21.914Z,10.00
2023-04-01T12:46:40.555Z,9.90
2023-04-01T12:50:02.831Z,9.90
2023-04-01T12:53:45.632Z,9.90
2023-04-01T12:57:18.070Z,10.30
2023-04-01T13:00:59.517Z,11.10
2023-04-01T13:04:47.605Z,11.50
2023-04-01T13:08:13.283Z,12.00
2023-04-01T13:12:12.996Z,11.60
2023-04-01T13:15:30.729Z,11.20
2023-04-01T13:18:58.234Z,10.60
2023-04-01T13:22:18.673Z,10.40
2023-04-01T13:25:36.674Z,9.90
2023-04-01T13:28:48.737Z,9.30
2023-04-01T13:32:40.816Z,8.60
2023-04-01T13:35:50.446Z,8.50
2023-04-01T13:39:22.040Z,8.80
2023-04-01T13:42:47.563Z,9.20
2023-04-01T13:46:32.899Z,9.30
2023-04-01T13:50:03.089Z,9.60
2023-04-01T13:53:43.415Z,9.60
2023-04-01T13:57:07.769Z,9.70
2023-04-01T14:00:33.653Z,9.70
2023-04-01T14:03:52.749Z,9.70
2023-04-01T14:07:34.588Z,9.70
2023-04-01T14:10:56.591Z,9.80
2023-04-01T14:14:44.247Z,9.90
2023-04-01T14:18:24.991Z,10.00
2023-04-01T14:21:45.242Z,10.00
2023-04-01T14:25:37.070Z,10.00
2023-04-01T14:28:58.580Z,10.20
2023-04-01T14:32:36.759Z,10.40
2023-04-01T14:36:33.736Z,10.50
2023-04-01T14:39:55.795Z,10.70
2023-04-01T14:43:09.772Z,10.70
2023-04-01T14:46:52.627Z,10.60
2023-04-01T14:50:28.929Z,10.50
2023-04-01T14:53:39.924Z,10.40
2023-04-01T14:56:50.290Z,10.20
2023-04-01T15:00:16.334Z,10.00
2023-04-01T15:03:31.993Z,9.60
2023-04-01T15:07:45.422Z,9.70
2023-04-01T15:11:23.827Z,9.80
2023-04-01T15:14:40.164Z,9.90
2023-04-01T15:17:57.397Z,10.10
2023-04-01T15:21:40.633Z,10.00
2023-04-01T15:24:48.836Z,9.80
2023-04-01T15:28:01.530Z,9.70
2023-04-01T15:31:52.748Z,9.10
2023-04-01T15:35:38.932Z,8.30
2023-04-01T15:38:52.361Z,8.00
2023-04-01T15:43:01.431Z,8.10
2023-04-01T15:46:39.178Z,8.20
2023-04-01T15:49:53.135Z,8.30
2023-04-01T15:53:51.922Z,8.30
2023-04-01T15:57:11.545Z,8.40
2023-04-01T16:00:31.610Z,8.50
2023-04-01T16:04:27.631Z,8.80
2023-04-01T16:08:08.128Z,9.10
2023-04-01T16:11:24.200Z,9.00
2023-04-01T16:14:57.032Z,9.10
2023-04-01T16:18:50.996Z,8.80
2023-04-01T16:22:09.569Z,9.20
2023-04-01T16:25:40.334Z,11.70
2023-04-01T16:28:54.745Z,11.30
2023-04-01T16:32:16.193Z,9.80
2023-04-01T16:35:54.433Z,9.40
2023-04-01T16:39:41.945Z,9.10
2023-04-01T16:42:55.522Z,9.20
2023-04-01T16:46:32.057Z,9.10
2023-04-01T16:49:55.293Z,8.90
2023-04-01T16:53:24.880Z,8.90
2023-04-01T16:56:37.520Z,8.90
2023-04-01T17:00:05.532Z,8.80
2023-04-01T17:03:22.939Z,8.60
2023-04-01T17:06:46.172Z,8.50
2023-04-01T17:10:05.764Z,8.50
2023-04-01T17:13:12.238Z,8.50
2023-04-01T17:16:51.608Z,8.40
2023-04-01T17:20:18.813Z,8.40
2023-04-01T17:23:39.771Z,8.30
2023-04-01T17:26:55.097Z,8.30
2023-04-01T17:30:47.348Z,8.20
2023-04-01T17:34:16.556Z,8.20
2023-04-01T17:37:45.045Z,8.20
2023-04-01T17:41:10.701Z,8.10
2023-04-01T17:44:19.447Z,8.00
2023-04-01T17:48:04.802Z,8.00
2023-04-01T17:51:27.634Z,8.00
2023-04-01T17:55:11.425Z,8.00
2023-04-01T17:58:23.707Z,8.00
2023-04-01T18:01:47.877Z,8.00
2023-04-01T18:05:19.658Z,8.00
2023-04-01T18:09:26.463Z,8.00
2023-04-01T18:12:54.948Z,8.00
2023-04-01T18:16:36.711Z,7.90
2023-04-01T18:20:24.294Z,7.90
2023-04-01T18:24:14.132Z,7.80
2023-04-01T18:27:34.652Z,7.80
2023-04-01T18:30:37.361Z,7.80
2023-04-01T18:33:54.441Z,7.80
2023-04-01T18:37:35.214Z,7.70
2023-04-01T18:41:24.778Z,7.70
2023-04-01T18:44:51.825Z,7.70
2023-04-01T18:48:12.342Z,7.60
2023-04-01T18:51:26.874Z,7.60
2023-04-01T18:54:46.630Z,7.60
2023-04-01T18:58:12.916Z,7.60
2023-04-01T19:01:18.048Z,7.50
2023-04-01T19:04:44.010Z,7.40
2023-04-01T19:07:47.727Z,7.40
2023-04-01T19:11:10.957Z,7.30
2023-04-01T19:14:29.876Z,7.30
2023-04-01T19:17:56.424Z,7.30
2023-04-01T19:21:34.974Z,7.30
2023-04-01T19:24:56.103Z,7.30
2023-04-01T19:28:33.081Z,7.20
2023-04-01T19:31:59.874Z,7.20
2023-04-01T19:35:43.184Z,7.20
2023-04-01T19:39:26.417Z,7.10
2023-04-01T19:43:04.553Z,7.00
2023-04-01T19:46:45.699Z,7.00
2023-04-01T19:50:29.837Z,7.00
2023-04-01T19:54:18.929Z,7.00
2023-04-01T19:58:12.514Z,7.00
2023-04-01T20:01:41.517Z,7.00
2023-04-01T20:04:52.269Z,6.90
2023-04-01T20:08:28.015Z,6.80
2023-04-01T20:11:59.124Z,6.90
2023-04-01T20:15:04.980Z,6.80
2023-04-01T20:18:35.999Z,6.70
2023-04-01T20:21:48.252Z,6.70
2023-04-01T20:24:50.405Z,6.60
2023-04-01T20:28:06.554Z,6.60
2023-04-01T20:31:36.103Z,6.70
2023-04-01T20:35:01.774Z,6.70
2023-04-01T20:38:56.924Z,6.70
2023-04-01T20:42:30.337Z,6.70
2023-04-01T20:46:01.497Z,6.70
2023-04-01T20:49:27.528Z,6.60
2023-04-01T20:52:41.079Z,6.50
2023-04-01T20:55:48.128Z,6.70
2023-04-01T20:59:25.737Z,6.80
2023-04-01T21:02:48.624Z,6.70
2023-04-01T21:06:33.624Z,6.60
2023-04-01T21:09:43.524Z,6.60
2023-04-01T21:13:21.733Z,6.50
2023-04-01T21:17:03.625Z,6.60
2023-04-01T21:20:58.255Z,6.60
2023-04-01T21:24:43.780Z,6.60
2023-04-01T21:28:06.223Z,6.70
2023-04-01T21:31:26.541Z,6.70
2023-04-01T21:35:17.012Z,6.80
2023-04-01T21:38:32.720Z,6.80
2023-04-01T21:42:21.129Z,6.90
2023-04-01T21:45:54.771Z,6.80
2023-04-01T21:49:25.961Z,7.00
2023-04-01T21:52:32.855Z,6.90
2023-04-01T21:55:53.293Z,7.00
2023-04-01T21:59:35.433Z,6.90
2023-04-01T22:03:23.881Z,6.90
2023-04-01T22:06:42.801Z,6.90
2023-04-01T22:09:57.944Z,6.90
2023-04-01T22:13:26.214Z,6.80
2023-04-01T22:16:42.313Z,6.90
2023-04-01T22:20:11.063Z,6.80
2023-04-01T22:23:37.251Z,6.70
2023-04-01T22:27:16.884Z,6.60
2023-04-01T22:30:24.612Z,6.70
2023-04-01T22:33:46.003Z,6.60
2023-04-01T22:37:22.391Z,6.70
2023-04-01T22:40:39.933Z,6.60
2023-04-01T22:43:45.081Z,6.50
2023-04-01T22:47:06.560Z,6.50
2023-04-01T22:50:26.503Z,6.40
2023-04-01T22:54:28.014Z,6.30
2023-04-01T22:57:43.831Z,6.30
2023-04-01T23:00:57.544Z,6.30
2023-04-01T23:04:04.759Z,6.20
2023-04-01T23:07:30.096Z,6.10
2023-04-01T23:10:53.973Z,6.10
2023-04-01T23:14:30.138Z,6.20
2023-04-01T23:17:53.748Z,6.20
2023-04-01T23:21:38.982Z,6.30
2023-04-01T23:24:54.707Z,6.20
2023-04-01T23:28:17.140Z,6.10
2023-04-01T23:31:36.684Z,6.10
2023-04-01T23:34:38.329Z,6.10
2023-04-01T23:37:39.424Z,6.10
2023-04-01T23:40:42.392Z,6.00
2023-04-01T23:43:46.911Z,6.00
2023-04-01T23:46:50.103Z,6.10
2023-04-01T23:50:04.748Z,6.00
2023-04-01T23:53:29.289Z,6.00
2023-04-01T23:56:44.804Z,6.10
